Elland, United Kingdom
Current Conditions -  °F | °C
As of 1:20 PM on Thursday 27 Nov 2014 (Local Time) from EGNM Reporting Station
Light Rain Light Rain  
Wind Chill: 45°   Ceiling: Unl
Heat Index: 45°   Visibility: 0.25mi
Dew Point: 45°   Wind: 2mph
Humidity: 100%   Direction: 80°E
Pressure: 29.56"   Gusts: NA
Location:  53.69°N, 1.84°W
Report Text: EGNM 271320Z 08002KT 0400 R32/0600 -RA FG VV/// 07/07 Q1001
Loading
Personal Weather Stations






























Interactive Weather Map New forecast layout! Learn more

10-Day Weather Forecast

Advertisements
Track Severe Weather on mobile